sensor_id;sensor_type;location;lat;lon;timestamp;P1;durP1;ratioP1;P2;durP2;ratioP2
73154;SDS011;61364;52.418;7.382;2022-10-04T00:04:41;4.78;;;4.78;;
73154;SDS011;61364;52.418;7.382;2022-10-04T00:09:45;4.86;;;4.86;;
73154;SDS011;61364;52.418;7.382;2022-10-04T00:12:20;5.20;;;5.20;;
73154;SDS011;61364;52.418;7.382;2022-10-04T00:14:49;5.22;;;5.22;;
73154;SDS011;61364;52.418;7.382;2022-10-04T00:17:19;5.13;;;5.13;;
73154;SDS011;61364;52.418;7.382;2022-10-04T00:19:48;5.16;;;5.16;;
73154;SDS011;61364;52.418;7.382;2022-10-04T00:22:16;5.47;;;5.47;;
73154;SDS011;61364;52.418;7.382;2022-10-04T00:27:26;5.60;;;5.60;;
73154;SDS011;61364;52.418;7.382;2022-10-04T00:32:30;5.37;;;5.37;;
73154;SDS011;61364;52.418;7.382;2022-10-04T00:34:57;5.40;;;5.40;;
73154;SDS011;61364;52.418;7.382;2022-10-04T00:37:24;5.51;;;5.51;;
73154;SDS011;61364;52.418;7.382;2022-10-04T00:45:05;5.88;;;5.88;;
73154;SDS011;61364;52.418;7.382;2022-10-04T00:47:54;5.92;;;5.92;;
73154;SDS011;61364;52.418;7.382;2022-10-04T00:50:32;6.41;;;6.41;;
73154;SDS011;61364;52.418;7.382;2022-10-04T00:53:01;6.37;;;6.37;;
73154;SDS011;61364;52.418;7.382;2022-10-04T00:55:37;6.34;;;6.34;;
73154;SDS011;61364;52.418;7.382;2022-10-04T00:58:12;6.09;;;6.09;;
73154;SDS011;61364;52.418;7.382;2022-10-04T01:00:41;6.26;;;6.26;;
73154;SDS011;61364;52.418;7.382;2022-10-04T01:03:13;6.17;;;6.17;;
73154;SDS011;61364;52.418;7.382;2022-10-04T01:05:43;6.16;;;6.16;;
73154;SDS011;61364;52.418;7.382;2022-10-04T01:08:16;6.04;;;6.04;;
73154;SDS011;61364;52.418;7.382;2022-10-04T01:10:51;6.33;;;6.33;;
73154;SDS011;61364;52.418;7.382;2022-10-04T01:13:28;6.61;;;6.61;;
73154;SDS011;61364;52.418;7.382;2022-10-04T01:23:21;6.73;;;6.73;;
73154;SDS011;61364;52.418;7.382;2022-10-04T01:25:55;6.80;;;6.80;;
73154;SDS011;61364;52.418;7.382;2022-10-04T01:28:21;6.90;;;6.90;;
73154;SDS011;61364;52.418;7.382;2022-10-04T01:30:47;6.92;;;6.92;;
73154;SDS011;61364;52.418;7.382;2022-10-04T01:33:13;6.83;;;6.83;;
73154;SDS011;61364;52.418;7.382;2022-10-04T01:35:38;6.78;;;6.78;;
73154;SDS011;61364;52.418;7.382;2022-10-04T01:38:04;6.57;;;6.57;;
73154;SDS011;61364;52.418;7.382;2022-10-04T01:40:35;6.98;;;6.98;;
73154;SDS011;61364;52.418;7.382;2022-10-04T01:43:09;6.95;;;6.95;;
73154;SDS011;61364;52.418;7.382;2022-10-04T01:45:41;6.87;;;6.87;;
73154;SDS011;61364;52.418;7.382;2022-10-04T01:48:11;6.91;;;6.91;;
73154;SDS011;61364;52.418;7.382;2022-10-04T01:50:45;7.03;;;7.03;;
73154;SDS011;61364;52.418;7.382;2022-10-04T01:53:21;7.15;;;7.15;;
73154;SDS011;61364;52.418;7.382;2022-10-04T01:55:51;6.62;;;6.62;;
73154;SDS011;61364;52.418;7.382;2022-10-04T01:58:21;7.08;;;7.08;;
73154;SDS011;61364;52.418;7.382;2022-10-04T02:01:00;6.71;;;6.71;;
73154;SDS011;61364;52.418;7.382;2022-10-04T02:03:32;6.97;;;6.97;;
73154;SDS011;61364;52.418;7.382;2022-10-04T02:06:02;7.12;;;7.12;;
73154;SDS011;61364;52.418;7.382;2022-10-04T02:08:31;6.82;;;6.82;;
73154;SDS011;61364;52.418;7.382;2022-10-04T02:10:59;6.79;;;6.79;;
73154;SDS011;61364;52.418;7.382;2022-10-04T02:13:28;6.63;;;6.63;;
73154;SDS011;61364;52.418;7.382;2022-10-04T02:15:59;6.70;;;6.70;;
73154;SDS011;61364;52.418;7.382;2022-10-04T02:18:27;6.57;;;6.57;;
73154;SDS011;61364;52.418;7.382;2022-10-04T02:20:56;6.73;;;6.73;;
73154;SDS011;61364;52.418;7.382;2022-10-04T02:23:23;6.50;;;6.50;;
73154;SDS011;61364;52.418;7.382;2022-10-04T02:25:50;6.53;;;6.53;;
73154;SDS011;61364;52.418;7.382;2022-10-04T02:28:17;7.15;;;7.15;;
73154;SDS011;61364;52.418;7.382;2022-10-04T02:30:44;7.08;;;7.08;;
73154;SDS011;61364;52.418;7.382;2022-10-04T02:33:32;6.89;;;6.89;;
73154;SDS011;61364;52.418;7.382;2022-10-04T02:36:02;6.81;;;6.81;;
73154;SDS011;61364;52.418;7.382;2022-10-04T02:38:32;6.59;;;6.59;;
73154;SDS011;61364;52.418;7.382;2022-10-04T02:41:02;6.74;;;6.74;;
73154;SDS011;61364;52.418;7.382;2022-10-04T02:48:34;6.83;;;6.83;;
73154;SDS011;61364;52.418;7.382;2022-10-04T02:51:13;7.19;;;7.19;;
73154;SDS011;61364;52.418;7.382;2022-10-04T02:53:50;7.02;;;7.02;;
73154;SDS011;61364;52.418;7.382;2022-10-04T02:56:22;6.75;;;6.75;;
73154;SDS011;61364;52.418;7.382;2022-10-04T02:58:49;6.87;;;6.87;;
73154;SDS011;61364;52.418;7.382;2022-10-04T03:01:27;6.52;;;6.52;;
73154;SDS011;61364;52.418;7.382;2022-10-04T03:03:54;7.15;;;7.15;;
73154;SDS011;61364;52.418;7.382;2022-10-04T03:06:22;6.76;;;6.76;;
73154;SDS011;61364;52.418;7.382;2022-10-04T03:08:54;7.04;;;7.04;;
73154;SDS011;61364;52.418;7.382;2022-10-04T03:11:23;7.26;;;7.26;;
73154;SDS011;61364;52.418;7.382;2022-10-04T03:13:53;7.25;;;7.25;;
73154;SDS011;61364;52.418;7.382;2022-10-04T03:16:20;6.83;;;6.83;;
73154;SDS011;61364;52.418;7.382;2022-10-04T03:18:48;6.66;;;6.66;;
73154;SDS011;61364;52.418;7.382;2022-10-04T03:21:15;6.66;;;6.66;;
73154;SDS011;61364;52.418;7.382;2022-10-04T03:23:42;6.72;;;6.72;;
73154;SDS011;61364;52.418;7.382;2022-10-04T03:28:55;6.87;;;6.87;;
73154;SDS011;61364;52.418;7.382;2022-10-04T03:31:22;7.64;;;7.64;;
73154;SDS011;61364;52.418;7.382;2022-10-04T03:33:51;7.52;;;7.52;;
73154;SDS011;61364;52.418;7.382;2022-10-04T03:36:19;7.30;;;7.30;;
73154;SDS011;61364;52.418;7.382;2022-10-04T03:38:45;6.89;;;6.89;;
73154;SDS011;61364;52.418;7.382;2022-10-04T03:41:12;6.93;;;6.93;;
73154;SDS011;61364;52.418;7.382;2022-10-04T03:43:43;7.02;;;7.02;;
73154;SDS011;61364;52.418;7.382;2022-10-04T03:46:10;6.99;;;6.99;;
73154;SDS011;61364;52.418;7.382;2022-10-04T03:48:48;6.56;;;6.56;;
73154;SDS011;61364;52.418;7.382;2022-10-04T03:51:16;7.21;;;7.21;;
73154;SDS011;61364;52.418;7.382;2022-10-04T03:53:44;7.34;;;7.34;;
73154;SDS011;61364;52.418;7.382;2022-10-04T03:56:16;6.58;;;6.58;;
73154;SDS011;61364;52.418;7.382;2022-10-04T03:58:45;6.92;;;6.92;;
73154;SDS011;61364;52.418;7.382;2022-10-04T04:01:13;6.97;;;6.97;;
73154;SDS011;61364;52.418;7.382;2022-10-04T04:06:15;6.83;;;6.83;;
73154;SDS011;61364;52.418;7.382;2022-10-04T04:08:44;7.38;;;7.38;;
73154;SDS011;61364;52.418;7.382;2022-10-04T04:11:25;7.10;;;7.10;;
73154;SDS011;61364;52.418;7.382;2022-10-04T04:16:23;6.86;;;6.86;;
73154;SDS011;61364;52.418;7.382;2022-10-04T04:18:53;7.20;;;7.20;;
73154;SDS011;61364;52.418;7.382;2022-10-04T04:21:23;7.18;;;7.18;;
73154;SDS011;61364;52.418;7.382;2022-10-04T04:23:52;7.33;;;7.33;;
73154;SDS011;61364;52.418;7.382;2022-10-04T04:26:37;7.11;;;7.11;;
73154;SDS011;61364;52.418;7.382;2022-10-04T04:31:39;7.27;;;7.27;;
73154;SDS011;61364;52.418;7.382;2022-10-04T04:34:21;7.35;;;7.35;;
73154;SDS011;61364;52.418;7.382;2022-10-04T04:36:49;7.90;;;7.90;;
73154;SDS011;61364;52.418;7.382;2022-10-04T04:39:18;8.05;;;8.05;;
73154;SDS011;61364;52.418;7.382;2022-10-04T04:47:59;8.62;;;8.62;;
73154;SDS011;61364;52.418;7.382;2022-10-04T04:50:15;9.48;;;9.48;;
73154;SDS011;61364;52.418;7.382;2022-10-04T04:52:52;9.49;;;9.49;;
73154;SDS011;61364;52.418;7.382;2022-10-04T04:55:22;9.24;;;9.24;;
73154;SDS011;61364;52.418;7.382;2022-10-04T04:57:50;9.19;;;9.19;;
73154;SDS011;61364;52.418;7.382;2022-10-04T05:00:20;9.04;;;9.04;;
73154;SDS011;61364;52.418;7.382;2022-10-04T05:02:51;9.34;;;9.34;;
73154;SDS011;61364;52.418;7.382;2022-10-04T05:05:25;8.34;;;8.34;;
73154;SDS011;61364;52.418;7.382;2022-10-04T05:10:36;7.68;;;7.68;;
73154;SDS011;61364;52.418;7.382;2022-10-04T05:13:05;7.13;;;7.13;;
73154;SDS011;61364;52.418;7.382;2022-10-04T05:15:41;7.18;;;7.18;;
73154;SDS011;61364;52.418;7.382;2022-10-04T05:20:50;6.93;;;6.93;;
73154;SDS011;61364;52.418;7.382;2022-10-04T05:23:18;7.16;;;7.16;;
73154;SDS011;61364;52.418;7.382;2022-10-04T05:25:43;7.04;;;7.04;;
73154;SDS011;61364;52.418;7.382;2022-10-04T05:28:10;7.22;;;7.22;;
73154;SDS011;61364;52.418;7.382;2022-10-04T05:33:04;7.52;;;7.52;;
73154;SDS011;61364;52.418;7.382;2022-10-04T05:35:43;7.28;;;7.28;;
73154;SDS011;61364;52.418;7.382;2022-10-04T05:38:24;7.13;;;7.13;;
73154;SDS011;61364;52.418;7.382;2022-10-04T05:43:26;7.39;;;7.39;;
73154;SDS011;61364;52.418;7.382;2022-10-04T05:48:38;7.40;;;7.40;;
73154;SDS011;61364;52.418;7.382;2022-10-04T05:51:23;7.58;;;7.58;;
73154;SDS011;61364;52.418;7.382;2022-10-04T05:53:50;7.66;;;7.66;;
73154;SDS011;61364;52.418;7.382;2022-10-04T05:56:33;7.39;;;7.39;;
73154;SDS011;61364;52.418;7.382;2022-10-04T06:06:49;7.76;;;7.76;;
73154;SDS011;61364;52.418;7.382;2022-10-04T06:17:05;8.54;;;8.54;;
73154;SDS011;61364;52.418;7.382;2022-10-04T06:22:22;9.16;;;9.16;;
73154;SDS011;61364;52.418;7.382;2022-10-04T06:24:54;9.21;;;9.21;;
73154;SDS011;61364;52.418;7.382;2022-10-04T06:30:12;9.38;;;9.38;;
73154;SDS011;61364;52.418;7.382;2022-10-04T06:32:58;9.07;;;9.07;;
73154;SDS011;61364;52.418;7.382;2022-10-04T06:38:03;9.28;;;9.28;;
73154;SDS011;61364;52.418;7.382;2022-10-04T06:43:20;9.30;;;9.30;;
73154;SDS011;61364;52.418;7.382;2022-10-04T06:48:43;9.58;;;9.58;;
73154;SDS011;61364;52.418;7.382;2022-10-04T06:51:22;10.37;;;10.37;;
73154;SDS011;61364;52.418;7.382;2022-10-04T06:54:05;10.37;;;10.37;;
73154;SDS011;61364;52.418;7.382;2022-10-04T06:56:43;12.37;;;12.37;;
73154;SDS011;61364;52.418;7.382;2022-10-04T07:02:10;11.72;;;11.72;;
73154;SDS011;61364;52.418;7.382;2022-10-04T07:12:33;9.98;;;9.98;;
73154;SDS011;61364;52.418;7.382;2022-10-04T07:15:04;10.71;;;10.71;;
73154;SDS011;61364;52.418;7.382;2022-10-04T07:17:41;10.68;;;10.68;;
73154;SDS011;61364;52.418;7.382;2022-10-04T07:20:20;10.72;;;10.72;;
73154;SDS011;61364;52.418;7.382;2022-10-04T07:22:59;10.97;;;10.97;;
73154;SDS011;61364;52.418;7.382;2022-10-04T07:25:36;11.82;;;11.82;;
73154;SDS011;61364;52.418;7.382;2022-10-04T07:31:00;12.64;;;12.64;;
73154;SDS011;61364;52.418;7.382;2022-10-04T07:33:29;12.14;;;12.14;;
73154;SDS011;61364;52.418;7.382;2022-10-04T07:36:04;11.54;;;11.54;;
73154;SDS011;61364;52.418;7.382;2022-10-04T07:38:35;11.40;;;11.40;;
73154;SDS011;61364;52.418;7.382;2022-10-04T07:41:11;10.81;;;10.81;;
73154;SDS011;61364;52.418;7.382;2022-10-04T07:43:52;11.22;;;11.22;;
73154;SDS011;61364;52.418;7.382;2022-10-04T07:49:01;11.42;;;11.42;;
73154;SDS011;61364;52.418;7.382;2022-10-04T07:51:35;11.21;;;11.21;;
73154;SDS011;61364;52.418;7.382;2022-10-04T07:54:18;11.15;;;11.15;;
73154;SDS011;61364;52.418;7.382;2022-10-04T07:56:51;11.27;;;11.27;;
73154;SDS011;61364;52.418;7.382;2022-10-04T08:20:28;10.52;;;10.52;;
73154;SDS011;61364;52.418;7.382;2022-10-04T08:23:04;10.56;;;10.56;;
73154;SDS011;61364;52.418;7.382;2022-10-04T08:28:07;10.96;;;10.96;;
73154;SDS011;61364;52.418;7.382;2022-10-04T08:52:02;10.72;;;10.72;;
73154;SDS011;61364;52.418;7.382;2022-10-04T09:05:43;9.99;;;9.99;;
73154;SDS011;61364;52.418;7.382;2022-10-04T09:07:45;9.53;;;9.53;;
73154;SDS011;61364;52.418;7.382;2022-10-04T09:10:36;8.91;;;8.91;;
73154;SDS011;61364;52.418;7.382;2022-10-04T09:18:28;8.30;;;8.30;;
73154;SDS011;61364;52.418;7.382;2022-10-04T09:21:08;8.30;;;8.30;;
73154;SDS011;61364;52.418;7.382;2022-10-04T09:23:40;8.02;;;8.02;;
73154;SDS011;61364;52.418;7.382;2022-10-04T09:26:26;8.09;;;8.09;;
73154;SDS011;61364;52.418;7.382;2022-10-04T09:34:27;8.93;;;8.93;;
73154;SDS011;61364;52.418;7.382;2022-10-04T09:37:01;7.86;;;7.86;;
73154;SDS011;61364;52.418;7.382;2022-10-04T09:39:49;7.69;;;7.69;;
73154;SDS011;61364;52.418;7.382;2022-10-04T09:47:45;7.69;;;7.69;;
73154;SDS011;61364;52.418;7.382;2022-10-04T09:58:07;5.64;;;5.64;;
73154;SDS011;61364;52.418;7.382;2022-10-04T10:01:24;5.69;;;5.69;;
73154;SDS011;61364;52.418;7.382;2022-10-04T10:08:47;11.46;;;11.46;;
73154;SDS011;61364;52.418;7.382;2022-10-04T10:17:00;8.29;;;8.29;;
73154;SDS011;61364;52.418;7.382;2022-10-04T10:22:18;7.36;;;7.36;;
73154;SDS011;61364;52.418;7.382;2022-10-04T10:38:10;4.67;;;4.67;;
73154;SDS011;61364;52.418;7.382;2022-10-04T10:46:02;5.79;;;5.79;;
73154;SDS011;61364;52.418;7.382;2022-10-04T10:48:56;6.08;;;6.08;;
73154;SDS011;61364;52.418;7.382;2022-10-04T10:51:32;4.28;;;4.28;;
73154;SDS011;61364;52.418;7.382;2022-10-04T11:27:47;4.08;;;4.08;;
73154;SDS011;61364;52.418;7.382;2022-10-04T11:30:21;3.87;;;3.87;;
73154;SDS011;61364;52.418;7.382;2022-10-04T11:42:58;5.45;;;5.45;;
73154;SDS011;61364;52.418;7.382;2022-10-04T11:45:32;4.38;;;4.38;;
73154;SDS011;61364;52.418;7.382;2022-10-04T11:50:37;4.38;;;4.38;;
73154;SDS011;61364;52.418;7.382;2022-10-04T12:03:22;4.95;;;4.95;;
73154;SDS011;61364;52.418;7.382;2022-10-04T12:25:43;5.58;;;5.58;;
73154;SDS011;61364;52.418;7.382;2022-10-04T12:30:24;5.40;;;5.40;;
73154;SDS011;61364;52.418;7.382;2022-10-04T12:46:11;5.14;;;5.14;;
73154;SDS011;61364;52.418;7.382;2022-10-04T12:51:32;5.09;;;5.09;;
73154;SDS011;61364;52.418;7.382;2022-10-04T12:54:44;4.93;;;4.92;;
73154;SDS011;61364;52.418;7.382;2022-10-04T12:57:16;5.04;;;5.04;;
73154;SDS011;61364;52.418;7.382;2022-10-04T13:04:54;5.18;;;5.18;;
73154;SDS011;61364;52.418;7.382;2022-10-04T13:31:04;4.75;;;4.75;;
73154;SDS011;61364;52.418;7.382;2022-10-04T13:41:00;4.54;;;4.53;;
73154;SDS011;61364;52.418;7.382;2022-10-04T13:43:41;4.56;;;4.55;;
73154;SDS011;61364;52.418;7.382;2022-10-04T13:49:19;4.79;;;4.77;;
73154;SDS011;61364;52.418;7.382;2022-10-04T13:55:00;4.89;;;4.89;;
73154;SDS011;61364;52.418;7.382;2022-10-04T13:57:57;4.67;;;4.67;;
73154;SDS011;61364;52.418;7.382;2022-10-04T14:03:09;4.42;;;4.42;;
73154;SDS011;61364;52.418;7.382;2022-10-04T14:05:52;4.91;;;4.91;;
73154;SDS011;61364;52.418;7.382;2022-10-04T14:08:35;4.56;;;4.56;;
73154;SDS011;61364;52.418;7.382;2022-10-04T14:27:01;5.01;;;5.01;;
73154;SDS011;61364;52.418;7.382;2022-10-04T14:40:17;5.12;;;5.11;;
73154;SDS011;61364;52.418;7.382;2022-10-04T14:55:49;5.75;;;5.75;;
73154;SDS011;61364;52.418;7.382;2022-10-04T15:14:02;6.61;;;6.61;;
73154;SDS011;61364;52.418;7.382;2022-10-04T15:16:35;5.97;;;5.96;;
73154;SDS011;61364;52.418;7.382;2022-10-04T15:19:09;5.91;;;5.89;;
73154;SDS011;61364;52.418;7.382;2022-10-04T15:27:16;6.14;;;6.14;;
73154;SDS011;61364;52.418;7.382;2022-10-04T15:32:32;6.64;;;6.63;;
73154;SDS011;61364;52.418;7.382;2022-10-04T15:37:38;6.20;;;6.20;;
73154;SDS011;61364;52.418;7.382;2022-10-04T15:45:34;7.00;;;7.00;;
73154;SDS011;61364;52.418;7.382;2022-10-04T16:06:22;5.19;;;5.19;;
73154;SDS011;61364;52.418;7.382;2022-10-04T16:13:59;5.36;;;5.36;;
73154;SDS011;61364;52.418;7.382;2022-10-04T16:16:40;5.01;;;5.00;;
73154;SDS011;61364;52.418;7.382;2022-10-04T16:29:32;5.83;;;5.83;;
73154;SDS011;61364;52.418;7.382;2022-10-04T16:32:12;6.46;;;6.45;;
73154;SDS011;61364;52.418;7.382;2022-10-04T16:34:51;6.56;;;6.56;;
73154;SDS011;61364;52.418;7.382;2022-10-04T16:37:29;6.96;;;6.96;;
73154;SDS011;61364;52.418;7.382;2022-10-04T16:42:38;5.96;;;5.96;;
73154;SDS011;61364;52.418;7.382;2022-10-04T16:47:48;5.73;;;5.73;;
73154;SDS011;61364;52.418;7.382;2022-10-04T16:55:50;5.50;;;5.50;;
73154;SDS011;61364;52.418;7.382;2022-10-04T17:03:36;8.54;;;8.54;;
73154;SDS011;61364;52.418;7.382;2022-10-04T17:06:14;11.65;;;11.65;;
73154;SDS011;61364;52.418;7.382;2022-10-04T17:13:54;9.47;;;9.47;;
73154;SDS011;61364;52.418;7.382;2022-10-04T17:19:13;13.81;;;13.81;;
73154;SDS011;61364;52.418;7.382;2022-10-04T17:21:56;10.47;;;10.47;;
73154;SDS011;61364;52.418;7.382;2022-10-04T17:32:21;8.18;;;8.18;;
73154;SDS011;61364;52.418;7.382;2022-10-04T17:38:06;8.22;;;8.22;;
73154;SDS011;61364;52.418;7.382;2022-10-04T17:50:50;8.70;;;8.70;;
73154;SDS011;61364;52.418;7.382;2022-10-04T17:53:40;8.05;;;8.05;;
73154;SDS011;61364;52.418;7.382;2022-10-04T17:56:30;7.67;;;7.67;;
73154;SDS011;61364;52.418;7.382;2022-10-04T17:58:59;7.26;;;7.26;;
73154;SDS011;61364;52.418;7.382;2022-10-04T18:01:33;7.55;;;7.55;;
73154;SDS011;61364;52.418;7.382;2022-10-04T18:07:08;7.01;;;7.01;;
73154;SDS011;61364;52.418;7.382;2022-10-04T18:17:23;6.10;;;6.10;;
73154;SDS011;61364;52.418;7.382;2022-10-04T18:19:58;6.32;;;6.32;;
73154;SDS011;61364;52.418;7.382;2022-10-04T18:22:26;6.51;;;6.51;;
73154;SDS011;61364;52.418;7.382;2022-10-04T18:25:13;6.73;;;6.73;;
73154;SDS011;61364;52.418;7.382;2022-10-04T18:27:47;6.70;;;6.70;;
73154;SDS011;61364;52.418;7.382;2022-10-04T18:30:15;7.67;;;7.67;;
73154;SDS011;61364;52.418;7.382;2022-10-04T18:32:44;9.50;;;9.47;;
73154;SDS011;61364;52.418;7.382;2022-10-04T18:37:42;14.15;;;14.15;;
73154;SDS011;61364;52.418;7.382;2022-10-04T18:42:37;11.89;;;11.89;;
73154;SDS011;61364;52.418;7.382;2022-10-04T18:45:16;11.58;;;11.58;;
73154;SDS011;61364;52.418;7.382;2022-10-04T18:47:46;11.69;;;11.69;;
73154;SDS011;61364;52.418;7.382;2022-10-04T18:52:44;10.00;;;10.00;;
73154;SDS011;61364;52.418;7.382;2022-10-04T18:58:00;10.84;;;10.84;;
73154;SDS011;61364;52.418;7.382;2022-10-04T19:00:52;11.67;;;11.67;;
73154;SDS011;61364;52.418;7.382;2022-10-04T19:03:46;13.09;;;13.09;;
73154;SDS011;61364;52.418;7.382;2022-10-04T19:06:22;12.08;;;12.08;;
73154;SDS011;61364;52.418;7.382;2022-10-04T19:11:39;11.36;;;11.36;;
73154;SDS011;61364;52.418;7.382;2022-10-04T19:16:44;9.96;;;9.96;;
73154;SDS011;61364;52.418;7.382;2022-10-04T19:19:22;10.75;;;10.75;;
73154;SDS011;61364;52.418;7.382;2022-10-04T19:21:56;10.21;;;10.21;;
73154;SDS011;61364;52.418;7.382;2022-10-04T19:24:35;10.34;;;10.34;;
73154;SDS011;61364;52.418;7.382;2022-10-04T19:32:19;12.51;;;12.51;;
73154;SDS011;61364;52.418;7.382;2022-10-04T19:37:30;11.66;;;11.66;;
73154;SDS011;61364;52.418;7.382;2022-10-04T19:47:46;12.39;;;12.39;;
73154;SDS011;61364;52.418;7.382;2022-10-04T19:50:16;13.50;;;13.50;;
73154;SDS011;61364;52.418;7.382;2022-10-04T19:55:18;13.73;;;13.71;;
73154;SDS011;61364;52.418;7.382;2022-10-04T19:57:48;13.06;;;13.06;;
73154;SDS011;61364;52.418;7.382;2022-10-04T20:00:15;12.95;;;12.94;;
73154;SDS011;61364;52.418;7.382;2022-10-04T20:02:41;11.57;;;11.54;;
73154;SDS011;61364;52.418;7.382;2022-10-04T20:05:14;11.37;;;11.37;;
73154;SDS011;61364;52.418;7.382;2022-10-04T20:07:47;11.49;;;11.49;;
73154;SDS011;61364;52.418;7.382;2022-10-04T20:10:21;10.89;;;10.88;;
73154;SDS011;61364;52.418;7.382;2022-10-04T20:17:59;8.80;;;8.79;;
73154;SDS011;61364;52.418;7.382;2022-10-04T20:23:03;8.87;;;8.87;;
73154;SDS011;61364;52.418;7.382;2022-10-04T20:31:00;8.58;;;8.58;;
73154;SDS011;61364;52.418;7.382;2022-10-04T20:33:47;8.30;;;8.30;;
73154;SDS011;61364;52.418;7.382;2022-10-04T20:36:47;8.23;;;8.23;;
73154;SDS011;61364;52.418;7.382;2022-10-04T20:39:00;8.22;;;8.22;;
73154;SDS011;61364;52.418;7.382;2022-10-04T20:44:01;7.92;;;7.92;;
73154;SDS011;61364;52.418;7.382;2022-10-04T20:46:32;8.73;;;8.73;;
73154;SDS011;61364;52.418;7.382;2022-10-04T20:49:02;8.82;;;8.82;;
73154;SDS011;61364;52.418;7.382;2022-10-04T20:51:29;8.84;;;8.84;;
73154;SDS011;61364;52.418;7.382;2022-10-04T20:54:00;8.77;;;8.77;;
73154;SDS011;61364;52.418;7.382;2022-10-04T20:56:31;8.37;;;8.37;;
73154;SDS011;61364;52.418;7.382;2022-10-04T20:59:01;8.13;;;8.13;;
73154;SDS011;61364;52.418;7.382;2022-10-04T21:01:31;7.94;;;7.94;;
73154;SDS011;61364;52.418;7.382;2022-10-04T21:06:52;7.76;;;7.76;;
73154;SDS011;61364;52.418;7.382;2022-10-04T21:09:18;7.70;;;7.70;;
73154;SDS011;61364;52.418;7.382;2022-10-04T21:11:45;7.39;;;7.39;;
73154;SDS011;61364;52.418;7.382;2022-10-04T21:14:24;7.87;;;7.87;;
73154;SDS011;61364;52.418;7.382;2022-10-04T21:16:51;8.11;;;8.11;;
73154;SDS011;61364;52.418;7.382;2022-10-04T21:27:32;7.90;;;7.90;;
73154;SDS011;61364;52.418;7.382;2022-10-04T21:29:59;7.81;;;7.81;;
73154;SDS011;61364;52.418;7.382;2022-10-04T21:32:26;7.94;;;7.94;;
73154;SDS011;61364;52.418;7.382;2022-10-04T21:34:52;8.19;;;8.19;;
73154;SDS011;61364;52.418;7.382;2022-10-04T21:37:18;8.40;;;8.40;;
73154;SDS011;61364;52.418;7.382;2022-10-04T21:39:44;8.28;;;8.28;;
73154;SDS011;61364;52.418;7.382;2022-10-04T21:42:10;7.48;;;7.48;;
73154;SDS011;61364;52.418;7.382;2022-10-04T21:44:35;7.52;;;7.52;;
73154;SDS011;61364;52.418;7.382;2022-10-04T21:47:01;7.47;;;7.47;;
73154;SDS011;61364;52.418;7.382;2022-10-04T21:49:27;7.21;;;7.21;;
73154;SDS011;61364;52.418;7.382;2022-10-04T21:51:53;7.16;;;7.16;;
73154;SDS011;61364;52.418;7.382;2022-10-04T21:54:18;7.27;;;7.26;;
73154;SDS011;61364;52.418;7.382;2022-10-04T21:56:44;7.32;;;7.32;;
73154;SDS011;61364;52.418;7.382;2022-10-04T21:59:09;7.14;;;7.14;;
73154;SDS011;61364;52.418;7.382;2022-10-04T22:01:35;7.30;;;7.29;;
73154;SDS011;61364;52.418;7.382;2022-10-04T22:04:00;6.80;;;6.80;;
73154;SDS011;61364;52.418;7.382;2022-10-04T22:06:25;7.09;;;7.09;;
73154;SDS011;61364;52.418;7.382;2022-10-04T22:08:51;6.91;;;6.91;;
73154;SDS011;61364;52.418;7.382;2022-10-04T22:11:16;6.82;;;6.82;;
73154;SDS011;61364;52.418;7.382;2022-10-04T22:13:42;7.00;;;7.00;;
73154;SDS011;61364;52.418;7.382;2022-10-04T22:16:09;6.78;;;6.78;;
73154;SDS011;61364;52.418;7.382;2022-10-04T22:18:35;6.98;;;6.98;;
73154;SDS011;61364;52.418;7.382;2022-10-04T22:21:00;7.12;;;7.12;;
73154;SDS011;61364;52.418;7.382;2022-10-04T22:23:26;6.97;;;6.97;;
73154;SDS011;61364;52.418;7.382;2022-10-04T22:25:53;7.16;;;7.16;;
73154;SDS011;61364;52.418;7.382;2022-10-04T22:28:21;7.17;;;7.17;;
73154;SDS011;61364;52.418;7.382;2022-10-04T22:30:47;7.06;;;7.06;;
73154;SDS011;61364;52.418;7.382;2022-10-04T22:33:35;7.15;;;7.13;;
73154;SDS011;61364;52.418;7.382;2022-10-04T22:38:37;7.38;;;7.38;;
73154;SDS011;61364;52.418;7.382;2022-10-04T22:41:11;7.22;;;7.22;;
73154;SDS011;61364;52.418;7.382;2022-10-04T22:43:38;6.96;;;6.96;;
73154;SDS011;61364;52.418;7.382;2022-10-04T22:46:04;7.04;;;7.04;;
73154;SDS011;61364;52.418;7.382;2022-10-04T22:48:35;6.40;;;6.40;;
73154;SDS011;61364;52.418;7.382;2022-10-04T22:51:01;6.84;;;6.84;;
73154;SDS011;61364;52.418;7.382;2022-10-04T22:53:26;6.94;;;6.94;;
73154;SDS011;61364;52.418;7.382;2022-10-04T22:55:52;7.16;;;7.16;;
73154;SDS011;61364;52.418;7.382;2022-10-04T22:58:20;7.16;;;7.16;;
73154;SDS011;61364;52.418;7.382;2022-10-04T23:00:46;7.58;;;7.58;;
73154;SDS011;61364;52.418;7.382;2022-10-04T23:03:24;7.25;;;7.25;;
73154;SDS011;61364;52.418;7.382;2022-10-04T23:05:51;7.07;;;7.05;;
73154;SDS011;61364;52.418;7.382;2022-10-04T23:08:17;7.28;;;7.28;;
73154;SDS011;61364;52.418;7.382;2022-10-04T23:10:45;7.22;;;7.22;;
73154;SDS011;61364;52.418;7.382;2022-10-04T23:13:11;7.18;;;7.18;;
73154;SDS011;61364;52.418;7.382;2022-10-04T23:15:37;7.10;;;7.10;;
73154;SDS011;61364;52.418;7.382;2022-10-04T23:18:04;7.32;;;7.32;;
73154;SDS011;61364;52.418;7.382;2022-10-04T23:20:37;7.40;;;7.40;;
73154;SDS011;61364;52.418;7.382;2022-10-04T23:23:04;6.90;;;6.89;;
73154;SDS011;61364;52.418;7.382;2022-10-04T23:25:35;6.88;;;6.88;;
73154;SDS011;61364;52.418;7.382;2022-10-04T23:28:02;7.15;;;7.15;;
73154;SDS011;61364;52.418;7.382;2022-10-04T23:30:35;7.09;;;7.09;;
73154;SDS011;61364;52.418;7.382;2022-10-04T23:33:00;6.92;;;6.92;;
73154;SDS011;61364;52.418;7.382;2022-10-04T23:35:30;7.38;;;7.38;;
73154;SDS011;61364;52.418;7.382;2022-10-04T23:37:56;6.90;;;6.90;;
73154;SDS011;61364;52.418;7.382;2022-10-04T23:40:22;6.56;;;6.56;;
73154;SDS011;61364;52.418;7.382;2022-10-04T23:42:51;6.73;;;6.73;;
73154;SDS011;61364;52.418;7.382;2022-10-04T23:45:19;6.57;;;6.57;;
73154;SDS011;61364;52.418;7.382;2022-10-04T23:47:47;6.77;;;6.77;;
73154;SDS011;61364;52.418;7.382;2022-10-04T23:52:46;6.53;;;6.53;;
73154;SDS011;61364;52.418;7.382;2022-10-04T23:55:16;6.66;;;6.66;;
73154;SDS011;61364;52.418;7.382;2022-10-04T23:57:43;6.46;;;6.46;;
